sensor_id;sensor_type;location;lat;lon;timestamp;pressure;altitude;pressure_sealevel;temperature;humidity
70902;BME280;58548;47.210;8.618;2023-04-19T00:00:18;94348.56;;;16.21;37.44
70902;BME280;58548;47.210;8.618;2023-04-19T00:02:44;94356.03;;;16.24;37.75
70902;BME280;58548;47.210;8.618;2023-04-19T00:05:14;94346.88;;;16.08;37.97
70902;BME280;58548;47.210;8.618;2023-04-19T00:07:42;94303.09;;;15.82;37.47
70902;BME280;58548;47.210;8.618;2023-04-19T00:10:11;94358.72;;;16.18;36.67
70902;BME280;58548;47.210;8.618;2023-04-19T00:12:37;94361.97;;;16.20;36.74
70902;BME280;58548;47.210;8.618;2023-04-19T00:15:06;94371.63;;;16.07;36.93
70902;BME280;58548;47.210;8.618;2023-04-19T00:17:33;94342.19;;;15.85;37.13
70902;BME280;58548;47.210;8.618;2023-04-19T00:19:59;94238.09;;;15.13;36.93
70902;BME280;58548;47.210;8.618;2023-04-19T00:22:30;94258.06;;;15.21;37.31
70902;BME280;58548;47.210;8.618;2023-04-19T00:24:56;94355.97;;;15.87;37.29
70902;BME280;58548;47.210;8.618;2023-04-19T00:27:24;94364.88;;;15.86;37.51
70902;BME280;58548;47.210;8.618;2023-04-19T00:29:53;94261.09;;;15.25;37.02
70902;BME280;58548;47.210;8.618;2023-04-19T00:32:18;94330.34;;;15.69;37.30
70902;BME280;58548;47.210;8.618;2023-04-19T00:34:44;94170.44;;;14.70;37.59
70902;BME280;58548;47.210;8.618;2023-04-19T00:37:10;94357.97;;;15.85;37.96
70902;BME280;58548;47.210;8.618;2023-04-19T00:39:38;94341.38;;;15.85;37.78
70902;BME280;58548;47.210;8.618;2023-04-19T00:42:04;94298.88;;;15.56;37.81
70902;BME280;58548;47.210;8.618;2023-04-19T00:44:30;94274.44;;;15.48;37.96
70902;BME280;58548;47.210;8.618;2023-04-19T00:46:59;94346.97;;;15.95;37.89
70902;BME280;58548;47.210;8.618;2023-04-19T00:49:26;94320.72;;;15.88;38.18
70902;BME280;58548;47.210;8.618;2023-04-19T00:51:54;94267.03;;;15.64;38.12
70902;BME280;58548;47.210;8.618;2023-04-19T00:54:23;94244.34;;;15.63;38.11
70902;BME280;58548;47.210;8.618;2023-04-19T00:56:55;94246.25;;;15.74;38.13
70902;BME280;58548;47.210;8.618;2023-04-19T00:59:21;94327.13;;;16.36;37.89
70902;BME280;58548;47.210;8.618;2023-04-19T01:01:48;94271.78;;;16.18;37.66
70902;BME280;58548;47.210;8.618;2023-04-19T01:04:15;94261.09;;;16.12;37.49
70902;BME280;58548;47.210;8.618;2023-04-19T01:06:41;94335.50;;;16.52;37.69
70902;BME280;58548;47.210;8.618;2023-04-19T01:09:09;94336.94;;;16.66;38.11
70902;BME280;58548;47.210;8.618;2023-04-19T01:11:35;94231.03;;;16.02;38.13
70902;BME280;58548;47.210;8.618;2023-04-19T01:14:01;94163.94;;;15.67;37.88
70902;BME280;58548;47.210;8.618;2023-04-19T01:16:27;94224.38;;;16.18;37.88
70902;BME280;58548;47.210;8.618;2023-04-19T01:18:55;94281.41;;;16.61;37.90
70902;BME280;58548;47.210;8.618;2023-04-19T01:21:23;94287.00;;;16.71;37.60
70902;BME280;58548;47.210;8.618;2023-04-19T01:23:52;94335.59;;;17.13;37.58
70902;BME280;58548;47.210;8.618;2023-04-19T01:26:20;94234.41;;;16.58;37.65
70902;BME280;58548;47.210;8.618;2023-04-19T01:28:46;94339.06;;;17.25;37.38
70902;BME280;58548;47.210;8.618;2023-04-19T01:31:14;94234.25;;;16.71;38.06
70902;BME280;58548;47.210;8.618;2023-04-19T01:33:40;94308.88;;;17.33;37.62
70902;BME280;58548;47.210;8.618;2023-04-19T01:36:09;94215.44;;;16.80;37.59
70902;BME280;58548;47.210;8.618;2023-04-19T01:38:37;94308.34;;;17.43;37.47
70902;BME280;58548;47.210;8.618;2023-04-19T01:41:06;94246.66;;;17.13;37.11
70902;BME280;58548;47.210;8.618;2023-04-19T01:43:34;94221.28;;;17.00;37.33
70902;BME280;58548;47.210;8.618;2023-04-19T01:46:02;94330.66;;;17.71;36.92
70902;BME280;58548;47.210;8.618;2023-04-19T01:48:28;94330.22;;;17.74;37.21
70902;BME280;58548;47.210;8.618;2023-04-19T01:50:54;94216.72;;;17.08;37.14
70902;BME280;58548;47.210;8.618;2023-04-19T01:53:20;94318.94;;;17.78;37.07
70902;BME280;58548;47.210;8.618;2023-04-19T01:55:48;94292.41;;;17.61;37.45
70902;BME280;58548;47.210;8.618;2023-04-19T01:58:14;94317.81;;;17.86;37.12
70902;BME280;58548;47.210;8.618;2023-04-19T02:00:40;94315.16;;;17.86;37.58
70902;BME280;58548;47.210;8.618;2023-04-19T02:03:06;94242.78;;;17.40;37.61
70902;BME280;58548;47.210;8.618;2023-04-19T02:05:32;94227.44;;;17.37;37.29
70902;BME280;58548;47.210;8.618;2023-04-19T02:08:00;94210.56;;;17.26;37.63
70902;BME280;58548;47.210;8.618;2023-04-19T02:10:28;94311.16;;;17.96;37.44
70902;BME280;58548;47.210;8.618;2023-04-19T02:12:56;94280.16;;;17.79;37.58
70902;BME280;58548;47.210;8.618;2023-04-19T02:15:24;94250.28;;;17.67;37.60
70902;BME280;58548;47.210;8.618;2023-04-19T02:17:50;94302.91;;;18.04;37.21
70902;BME280;58548;47.210;8.618;2023-04-19T02:20:16;94219.28;;;17.50;37.29
70902;BME280;58548;47.210;8.618;2023-04-19T02:22:42;94309.91;;;18.10;37.32
70902;BME280;58548;47.210;8.618;2023-04-19T02:25:08;94183.00;;;17.33;37.48
70902;BME280;58548;47.210;8.618;2023-04-19T02:27:37;94209.88;;;17.54;37.29
70902;BME280;58548;47.210;8.618;2023-04-19T02:30:03;94226.97;;;17.63;37.25
70902;BME280;58548;47.210;8.618;2023-04-19T02:32:31;94303.94;;;18.15;37.33
70902;BME280;58548;47.210;8.618;2023-04-19T02:34:57;94305.41;;;18.22;36.81
70902;BME280;58548;47.210;8.618;2023-04-19T02:37:25;94128.16;;;17.12;36.72
70902;BME280;58548;47.210;8.618;2023-04-19T02:39:54;94300.25;;;18.28;37.26
70902;BME280;58548;47.210;8.618;2023-04-19T02:42:23;94185.53;;;17.52;37.12
70902;BME280;58548;47.210;8.618;2023-04-19T02:44:51;94307.00;;;18.23;37.35
70902;BME280;58548;47.210;8.618;2023-04-19T02:47:17;94217.31;;;17.69;37.27
70902;BME280;58548;47.210;8.618;2023-04-19T02:49:43;94128.50;;;17.15;36.96
70902;BME280;58548;47.210;8.618;2023-04-19T02:52:09;94179.88;;;17.48;36.95
70902;BME280;58548;47.210;8.618;2023-04-19T02:54:35;94311.50;;;18.23;37.18
70902;BME280;58548;47.210;8.618;2023-04-19T02:57:03;94300.47;;;18.26;37.46
70902;BME280;58548;47.210;8.618;2023-04-19T02:59:34;94205.97;;;17.57;37.39
70902;BME280;58548;47.210;8.618;2023-04-19T03:02:02;94215.03;;;17.61;36.87
70902;BME280;58548;47.210;8.618;2023-04-19T03:04:30;94301.06;;;18.16;37.37
70902;BME280;58548;47.210;8.618;2023-04-19T03:06:56;94278.09;;;18.05;37.12
70902;BME280;58548;47.210;8.618;2023-04-19T03:09:22;94190.94;;;17.57;37.08
70902;BME280;58548;47.210;8.618;2023-04-19T03:11:48;94270.59;;;18.14;36.80
70902;BME280;58548;47.210;8.618;2023-04-19T03:14:13;94286.09;;;18.34;37.53
70902;BME280;58548;47.210;8.618;2023-04-19T03:16:39;94283.44;;;18.34;37.19
70902;BME280;58548;47.210;8.618;2023-04-19T03:19:10;94270.13;;;18.29;36.80
70902;BME280;58548;47.210;8.618;2023-04-19T03:21:36;94293.69;;;18.42;36.87
70902;BME280;58548;47.210;8.618;2023-04-19T03:24:04;94290.47;;;18.40;37.24
70902;BME280;58548;47.210;8.618;2023-04-19T03:26:36;94274.63;;;18.28;36.69
70902;BME280;58548;47.210;8.618;2023-04-19T03:29:01;94208.84;;;17.79;36.66
70902;BME280;58548;47.210;8.618;2023-04-19T03:31:32;94192.63;;;17.63;36.76
70902;BME280;58548;47.210;8.618;2023-04-19T03:33:58;94180.59;;;17.56;36.87
70902;BME280;58548;47.210;8.618;2023-04-19T03:36:29;94297.25;;;18.24;37.36
70902;BME280;58548;47.210;8.618;2023-04-19T03:38:55;94286.91;;;18.22;37.13
70902;BME280;58548;47.210;8.618;2023-04-19T03:41:25;94274.25;;;18.24;37.32
70902;BME280;58548;47.210;8.618;2023-04-19T03:43:56;94282.56;;;18.28;36.95
70902;BME280;58548;47.210;8.618;2023-04-19T03:46:23;94190.44;;;17.72;36.88
70902;BME280;58548;47.210;8.618;2023-04-19T03:48:51;94254.84;;;18.19;37.20
70902;BME280;58548;47.210;8.618;2023-04-19T03:51:22;94260.00;;;18.26;37.04
70902;BME280;58548;47.210;8.618;2023-04-19T03:53:48;94178.16;;;17.78;36.78
70902;BME280;58548;47.210;8.618;2023-04-19T03:56:16;94280.66;;;18.52;36.79
70902;BME280;58548;47.210;8.618;2023-04-19T03:58:44;94278.56;;;18.54;36.80
70902;BME280;58548;47.210;8.618;2023-04-19T04:01:20;94288.13;;;18.56;36.39
70902;BME280;58548;47.210;8.618;2023-04-19T04:03:46;94279.03;;;18.51;36.69
70902;BME280;58548;47.210;8.618;2023-04-19T04:06:14;94276.06;;;18.48;36.75
70902;BME280;58548;47.210;8.618;2023-04-19T04:08:42;94179.19;;;17.89;36.35
70902;BME280;58548;47.210;8.618;2023-04-19T04:11:08;94179.97;;;17.89;36.53
70902;BME280;58548;47.210;8.618;2023-04-19T04:13:34;94175.63;;;17.83;36.42
70902;BME280;58548;47.210;8.618;2023-04-19T04:16:00;94209.38;;;18.05;36.94
70902;BME280;58548;47.210;8.618;2023-04-19T04:18:26;94249.56;;;18.31;36.76
70902;BME280;58548;47.210;8.618;2023-04-19T04:20:55;94185.94;;;17.97;36.52
70902;BME280;58548;47.210;8.618;2023-04-19T04:23:24;94195.38;;;18.04;36.59
70902;BME280;58548;47.210;8.618;2023-04-19T04:25:59;94263.06;;;18.46;36.36
70902;BME280;58548;47.210;8.618;2023-04-19T04:28:26;94294.88;;;18.63;36.51
70902;BME280;58548;47.210;8.618;2023-04-19T04:30:54;94288.56;;;18.64;36.37
70902;BME280;58548;47.210;8.618;2023-04-19T04:33:26;94297.28;;;18.65;36.34
70902;BME280;58548;47.210;8.618;2023-04-19T04:35:53;94195.13;;;18.06;36.25
70902;BME280;58548;47.210;8.618;2023-04-19T04:38:20;94209.34;;;18.17;36.31
70902;BME280;58548;47.210;8.618;2023-04-19T04:40:49;94284.41;;;18.68;36.22
70902;BME280;58548;47.210;8.618;2023-04-19T04:43:18;94245.97;;;18.37;36.56
70902;BME280;58548;47.210;8.618;2023-04-19T04:45:45;94298.78;;;18.73;36.76
70902;BME280;58548;47.210;8.618;2023-04-19T04:48:11;94210.84;;;18.13;36.60
70902;BME280;58548;47.210;8.618;2023-04-19T04:50:37;94301.63;;;18.71;36.96
70902;BME280;58548;47.210;8.618;2023-04-19T04:53:06;94305.09;;;18.72;36.72
70902;BME280;58548;47.210;8.618;2023-04-19T04:55:33;94194.09;;;18.07;36.65
70902;BME280;58548;47.210;8.618;2023-04-19T04:57:59;94181.69;;;17.96;36.76
70902;BME280;58548;47.210;8.618;2023-04-19T05:00:25;94298.78;;;18.73;36.30
70902;BME280;58548;47.210;8.618;2023-04-19T05:02:51;94287.50;;;18.65;36.34
70902;BME280;58548;47.210;8.618;2023-04-19T05:05:17;94290.84;;;18.73;36.71
70902;BME280;58548;47.210;8.618;2023-04-19T05:07:45;94295.88;;;18.74;36.19
70902;BME280;58548;47.210;8.618;2023-04-19T05:10:11;94298.63;;;18.79;36.50
70902;BME280;58548;47.210;8.618;2023-04-19T05:12:39;94128.78;;;17.67;36.27
70902;BME280;58548;47.210;8.618;2023-04-19T05:15:10;94301.84;;;18.81;36.48
70902;BME280;58548;47.210;8.618;2023-04-19T05:17:41;94200.63;;;18.16;36.60
70902;BME280;58548;47.210;8.618;2023-04-19T05:20:08;94269.72;;;18.61;36.14
70902;BME280;58548;47.210;8.618;2023-04-19T05:22:34;94277.63;;;18.73;36.35
70902;BME280;58548;47.210;8.618;2023-04-19T05:25:00;94211.84;;;18.23;36.52
70902;BME280;58548;47.210;8.618;2023-04-19T05:27:26;94203.38;;;18.21;36.28
70902;BME280;58548;47.210;8.618;2023-04-19T05:29:54;94208.06;;;18.31;36.35
70902;BME280;58548;47.210;8.618;2023-04-19T05:32:23;94221.81;;;18.33;36.30
70902;BME280;58548;47.210;8.618;2023-04-19T05:34:54;94200.81;;;18.27;36.33
70902;BME280;58548;47.210;8.618;2023-04-19T05:37:20;94290.22;;;18.82;36.43
70902;BME280;58548;47.210;8.618;2023-04-19T05:39:46;94238.81;;;18.49;35.58
70902;BME280;58548;47.210;8.618;2023-04-19T05:42:14;94304.09;;;18.90;36.07
70902;BME280;58548;47.210;8.618;2023-04-19T05:44:39;94289.66;;;18.80;36.01
70902;BME280;58548;47.210;8.618;2023-04-19T05:47:08;94208.06;;;18.31;36.29
70902;BME280;58548;47.210;8.618;2023-04-19T05:49:34;94305.25;;;18.94;35.61
70902;BME280;58548;47.210;8.618;2023-04-19T05:52:00;94193.47;;;18.29;35.82
70902;BME280;58548;47.210;8.618;2023-04-19T05:54:26;94254.84;;;18.72;36.13
70902;BME280;58548;47.210;8.618;2023-04-19T05:56:52;94240.63;;;18.61;35.97
70902;BME280;58548;47.210;8.618;2023-04-19T05:59:23;94247.13;;;18.70;35.12
70902;BME280;58548;47.210;8.618;2023-04-19T06:01:49;94302.91;;;19.09;35.37
70902;BME280;58548;47.210;8.618;2023-04-19T06:04:15;94213.25;;;18.55;35.66
70902;BME280;58548;47.210;8.618;2023-04-19T06:06:43;94220.50;;;18.60;35.92
70902;BME280;58548;47.210;8.618;2023-04-19T06:09:11;94215.69;;;18.57;35.35
70902;BME280;58548;47.210;8.618;2023-04-19T06:11:40;94302.53;;;19.18;35.29
70902;BME280;58548;47.210;8.618;2023-04-19T06:14:08;94307.91;;;19.23;35.85
70902;BME280;58548;47.210;8.618;2023-04-19T06:16:34;94297.47;;;19.16;35.13
70902;BME280;58548;47.210;8.618;2023-04-19T06:19:03;94265.78;;;19.04;35.09
70902;BME280;58548;47.210;8.618;2023-04-19T06:21:32;94310.16;;;19.31;34.99
70902;BME280;58548;47.210;8.618;2023-04-19T06:23:59;94309.69;;;19.34;35.02
70902;BME280;58548;47.210;8.618;2023-04-19T06:26:27;94314.81;;;19.41;34.85
70902;BME280;58548;47.210;8.618;2023-04-19T06:28:56;94278.78;;;19.23;34.89
70902;BME280;58548;47.210;8.618;2023-04-19T06:31:26;94315.75;;;19.47;34.84
70902;BME280;58548;47.210;8.618;2023-04-19T06:33:54;94235.19;;;18.96;34.50
70902;BME280;58548;47.210;8.618;2023-04-19T06:36:20;94321.66;;;19.54;34.71
70902;BME280;58548;47.210;8.618;2023-04-19T06:38:46;94239.78;;;19.01;34.58
70902;BME280;58548;47.210;8.618;2023-04-19T06:41:14;94237.13;;;19.01;35.13
70902;BME280;58548;47.210;8.618;2023-04-19T06:43:43;94313.56;;;19.43;34.55
70902;BME280;58548;47.210;8.618;2023-04-19T06:46:09;94275.09;;;19.24;34.84
70902;BME280;58548;47.210;8.618;2023-04-19T06:48:36;94206.91;;;18.85;34.72
70902;BME280;58548;47.210;8.618;2023-04-19T06:51:02;94326.50;;;19.57;34.39
70902;BME280;58548;47.210;8.618;2023-04-19T06:53:28;94297.19;;;19.47;34.23
70902;BME280;58548;47.210;8.618;2023-04-19T06:55:59;94336.69;;;19.65;34.69
70902;BME280;58548;47.210;8.618;2023-04-19T06:58:26;94309.00;;;19.56;34.27
70902;BME280;58548;47.210;8.618;2023-04-19T07:00:53;94240.59;;;19.19;34.77
70902;BME280;58548;47.210;8.618;2023-04-19T07:03:22;94213.06;;;19.03;34.41
70902;BME280;58548;47.210;8.618;2023-04-19T07:05:48;94334.75;;;19.78;34.20
70902;BME280;58548;47.210;8.618;2023-04-19T07:08:17;94318.72;;;19.67;34.08
70902;BME280;58548;47.210;8.618;2023-04-19T07:10:48;94233.22;;;19.21;33.94
70902;BME280;58548;47.210;8.618;2023-04-19T07:13:16;94328.84;;;19.87;34.08
70902;BME280;58548;47.210;8.618;2023-04-19T07:15:44;94238.09;;;19.29;34.31
70902;BME280;58548;47.210;8.618;2023-04-19T07:18:11;94229.94;;;19.31;34.19
70902;BME280;58548;47.210;8.618;2023-04-19T07:20:39;94329.66;;;19.88;34.10
70902;BME280;58548;47.210;8.618;2023-04-19T07:23:09;94329.00;;;19.81;34.19
70902;BME280;58548;47.210;8.618;2023-04-19T07:25:40;94334.16;;;19.87;34.01
70902;BME280;58548;47.210;8.618;2023-04-19T07:28:06;94238.59;;;19.26;34.24
70902;BME280;58548;47.210;8.618;2023-04-19T07:30:31;94246.69;;;19.36;34.12
70902;BME280;58548;47.210;8.618;2023-04-19T07:32:58;94341.44;;;19.97;33.97
70902;BME280;58548;47.210;8.618;2023-04-19T07:35:24;94237.72;;;19.37;33.99
70902;BME280;58548;47.210;8.618;2023-04-19T07:37:52;94327.25;;;20.03;33.65
70902;BME280;58548;47.210;8.618;2023-04-19T07:40:20;94319.78;;;20.00;33.52
70902;BME280;58548;47.210;8.618;2023-04-19T07:42:46;94235.72;;;19.44;33.78
70902;BME280;58548;47.210;8.618;2023-04-19T07:45:14;94238.59;;;19.43;33.46
70902;BME280;58548;47.210;8.618;2023-04-19T07:47:42;94322.41;;;20.00;33.54
70902;BME280;58548;47.210;8.618;2023-04-19T07:50:11;94332.06;;;20.07;33.58
70902;BME280;58548;47.210;8.618;2023-04-19T07:52:37;94321.78;;;20.10;33.27
70902;BME280;58548;47.210;8.618;2023-04-19T07:55:03;94236.50;;;19.62;33.44
70902;BME280;58548;47.210;8.618;2023-04-19T07:57:29;94228.09;;;19.65;32.95
70902;BME280;58548;47.210;8.618;2023-04-19T07:59:56;94322.88;;;20.31;33.60
70902;BME280;58548;47.210;8.618;2023-04-19T08:02:27;94303.66;;;20.24;33.05
70902;BME280;58548;47.210;8.618;2023-04-19T08:04:57;94321.38;;;20.41;33.66
70902;BME280;58548;47.210;8.618;2023-04-19T08:07:23;94325.47;;;20.48;33.10
70902;BME280;58548;47.210;8.618;2023-04-19T08:09:52;94328.00;;;20.60;33.38
70902;BME280;58548;47.210;8.618;2023-04-19T08:12:18;94328.13;;;20.71;33.09
70902;BME280;58548;47.210;8.618;2023-04-19T08:14:47;94219.78;;;20.18;32.74
70902;BME280;58548;47.210;8.618;2023-04-19T08:17:13;94294.34;;;20.83;32.76
70902;BME280;58548;47.210;8.618;2023-04-19T08:19:43;94328.50;;;21.02;32.34
70902;BME280;58548;47.210;8.618;2023-04-19T08:22:14;94157.81;;;20.02;32.12
70902;BME280;58548;47.210;8.618;2023-04-19T08:24:41;94221.28;;;20.53;32.36
70902;BME280;58548;47.210;8.618;2023-04-19T08:27:10;94304.66;;;21.07;31.96
70902;BME280;58548;47.210;8.618;2023-04-19T08:29:36;94160.13;;;20.15;32.10
70902;BME280;58548;47.210;8.618;2023-04-19T08:32:06;94298.66;;;21.17;31.94
70902;BME280;58548;47.210;8.618;2023-04-19T08:34:36;94296.63;;;21.24;31.88
70902;BME280;58548;47.210;8.618;2023-04-19T08:37:07;94248.88;;;21.02;31.99
70902;BME280;58548;47.210;8.618;2023-04-19T08:39:35;94308.38;;;21.61;31.51
70902;BME280;58548;47.210;8.618;2023-04-19T08:42:06;94307.91;;;21.69;31.20
70902;BME280;58548;47.210;8.618;2023-04-19T08:44:35;94257.63;;;21.30;31.21
70902;BME280;58548;47.210;8.618;2023-04-19T08:47:05;94224.94;;;21.29;31.52
70902;BME280;58548;47.210;8.618;2023-04-19T08:49:37;94313.94;;;21.92;30.51
70902;BME280;58548;47.210;8.618;2023-04-19T08:52:05;94314.25;;;22.01;30.37
70902;BME280;58548;47.210;8.618;2023-04-19T08:54:34;94196.03;;;21.33;31.15
70902;BME280;58548;47.210;8.618;2023-04-19T08:57:01;94222.28;;;21.62;31.00
70902;BME280;58548;47.210;8.618;2023-04-19T08:59:29;94300.09;;;22.33;30.55
70902;BME280;58548;47.210;8.618;2023-04-19T09:02:03;94306.84;;;22.46;29.61
70902;BME280;58548;47.210;8.618;2023-04-19T09:04:37;94303.66;;;22.49;29.61
70902;BME280;58548;47.210;8.618;2023-04-19T09:07:03;94271.38;;;22.35;29.69
70902;BME280;58548;47.210;8.618;2023-04-19T09:09:34;94302.91;;;22.58;29.86
70902;BME280;58548;47.210;8.618;2023-04-19T09:12:01;94320.03;;;22.73;29.70
70902;BME280;58548;47.210;8.618;2023-04-19T09:14:28;94210.69;;;22.26;29.53
70902;BME280;58548;47.210;8.618;2023-04-19T09:17:13;94303.00;;;22.84;29.15
70902;BME280;58548;47.210;8.618;2023-04-19T09:19:46;94301.44;;;22.88;29.52
70902;BME280;58548;47.210;8.618;2023-04-19T09:22:15;94292.63;;;22.88;29.39
70902;BME280;58548;47.210;8.618;2023-04-19T09:24:42;94297.97;;;22.93;29.36
70902;BME280;58548;47.210;8.618;2023-04-19T09:27:10;94296.41;;;22.97;29.06
70902;BME280;58548;47.210;8.618;2023-04-19T09:29:39;94279.09;;;22.95;28.65
70902;BME280;58548;47.210;8.618;2023-04-19T09:32:07;94270.81;;;22.96;28.96
70902;BME280;58548;47.210;8.618;2023-04-19T09:34:50;94281.53;;;23.07;28.60
70902;BME280;58548;47.210;8.618;2023-04-19T09:37:16;94244.72;;;22.83;28.42
70902;BME280;58548;47.210;8.618;2023-04-19T09:39:42;94202.06;;;22.62;28.70
70902;BME280;58548;47.210;8.618;2023-04-19T09:42:08;94197.56;;;22.68;28.50
70902;BME280;58548;47.210;8.618;2023-04-19T09:44:35;94290.56;;;23.11;27.95
70902;BME280;58548;47.210;8.618;2023-04-19T09:47:01;94222.03;;;22.70;28.48
70902;BME280;58548;47.210;8.618;2023-04-19T09:49:31;94272.22;;;23.14;28.71
70902;BME280;58548;47.210;8.618;2023-04-19T09:52:02;94285.31;;;23.26;28.29
70902;BME280;58548;47.210;8.618;2023-04-19T09:54:29;94280.44;;;23.13;28.29
70902;BME280;58548;47.210;8.618;2023-04-19T09:56:59;94275.72;;;23.25;28.19
70902;BME280;58548;47.210;8.618;2023-04-19T09:59:28;94261.88;;;23.28;28.39
70902;BME280;58548;47.210;8.618;2023-04-19T10:02:06;94176.25;;;22.78;28.35
70902;BME280;58548;47.210;8.618;2023-04-19T10:04:34;94264.53;;;23.44;28.32
70902;BME280;58548;47.210;8.618;2023-04-19T10:07:04;94170.44;;;22.92;28.47
70902;BME280;58548;47.210;8.618;2023-04-19T10:09:35;94188.84;;;23.09;28.36
70902;BME280;58548;47.210;8.618;2023-04-19T10:12:06;94172.31;;;23.01;28.15
70902;BME280;58548;47.210;8.618;2023-04-19T10:14:34;94254.41;;;23.72;28.27
70902;BME280;58548;47.210;8.618;2023-04-19T10:17:03;94254.38;;;23.92;27.50
70902;BME280;58548;47.210;8.618;2023-04-19T10:19:34;94236.53;;;23.98;27.79
70902;BME280;58548;47.210;8.618;2023-04-19T10:22:03;94254.88;;;24.26;27.74
70902;BME280;58548;47.210;8.618;2023-04-19T10:24:34;94158.09;;;23.89;27.76
70902;BME280;58548;47.210;8.618;2023-04-19T10:27:13;94249.88;;;24.79;27.21
70902;BME280;58548;47.210;8.618;2023-04-19T10:29:59;94200.25;;;24.63;26.75
70902;BME280;58548;47.210;8.618;2023-04-19T10:32:27;94221.47;;;24.99;26.73
70902;BME280;58548;47.210;8.618;2023-04-19T10:34:53;94214.75;;;25.02;26.58
70902;BME280;58548;47.210;8.618;2023-04-19T10:37:25;94241.09;;;25.19;25.94
70902;BME280;58548;47.210;8.618;2023-04-19T10:39:51;94245.88;;;25.22;26.37
70902;BME280;58548;47.210;8.618;2023-04-19T10:42:22;94242.94;;;25.23;25.46
70902;BME280;58548;47.210;8.618;2023-04-19T10:47:51;94166.66;;;24.57;26.28
70902;BME280;58548;47.210;8.618;2023-04-19T10:50:17;94242.03;;;24.98;25.46
70902;BME280;58548;47.210;8.618;2023-04-19T10:52:50;94234.00;;;24.98;25.76
70902;BME280;58548;47.210;8.618;2023-04-19T10:55:19;94071.69;;;23.95;25.80
70902;BME280;58548;47.210;8.618;2023-04-19T10:58:04;94223.41;;;24.88;26.09
70902;BME280;58548;47.210;8.618;2023-04-19T11:00:31;94223.16;;;24.79;26.34
70902;BME280;58548;47.210;8.618;2023-04-19T11:06:16;94228.03;;;24.62;26.69
70902;BME280;58548;47.210;8.618;2023-04-19T11:08:44;94223.81;;;24.56;26.51
70902;BME280;58548;47.210;8.618;2023-04-19T11:11:12;94213.66;;;24.52;26.62
70902;BME280;58548;47.210;8.618;2023-04-19T11:13:42;94208.34;;;24.47;26.70
70902;BME280;58548;47.210;8.618;2023-04-19T11:16:10;94129.59;;;23.89;26.42
70902;BME280;58548;47.210;8.618;2023-04-19T11:18:36;94208.38;;;24.42;26.65
70902;BME280;58548;47.210;8.618;2023-04-19T11:21:02;94099.50;;;23.68;27.04
70902;BME280;58548;47.210;8.618;2023-04-19T11:23:28;94193.25;;;24.22;26.75
70902;BME280;58548;47.210;8.618;2023-04-19T11:25:54;94109.38;;;23.62;26.80
70902;BME280;58548;47.210;8.618;2023-04-19T11:28:25;94132.28;;;23.74;26.98
70902;BME280;58548;47.210;8.618;2023-04-19T11:30:51;94199.13;;;24.19;27.06
70902;BME280;58548;47.210;8.618;2023-04-19T11:33:22;94106.97;;;23.66;26.81
70902;BME280;58548;47.210;8.618;2023-04-19T11:35:52;94143.97;;;23.99;27.11
70902;BME280;58548;47.210;8.618;2023-04-19T11:38:18;94197.69;;;24.42;26.78
70902;BME280;58548;47.210;8.618;2023-04-19T11:40:49;94193.47;;;24.36;26.53
70902;BME280;58548;47.210;8.618;2023-04-19T11:46:12;94167.44;;;24.02;26.47
70902;BME280;58548;47.210;8.618;2023-04-19T11:48:53;94191.66;;;24.11;26.51
70902;BME280;58548;47.210;8.618;2023-04-19T11:51:19;94173.31;;;23.99;26.56
70902;BME280;58548;47.210;8.618;2023-04-19T11:53:47;94093.38;;;23.68;26.83
70902;BME280;58548;47.210;8.618;2023-04-19T11:56:13;94082.66;;;23.83;26.51
70902;BME280;58548;47.210;8.618;2023-04-19T11:58:45;94090.50;;;24.24;26.80
70902;BME280;58548;47.210;8.618;2023-04-19T12:01:21;94169.66;;;24.95;25.96
70902;BME280;58548;47.210;8.618;2023-04-19T12:03:52;94121.38;;;24.86;26.39
70902;BME280;58548;47.210;8.618;2023-04-19T12:06:24;94166.84;;;25.16;25.13
70902;BME280;58548;47.210;8.618;2023-04-19T12:08:54;94171.16;;;25.41;25.23
70902;BME280;58548;47.210;8.618;2023-04-19T12:11:25;94094.44;;;25.12;25.21
70902;BME280;58548;47.210;8.618;2023-04-19T12:14:12;94169.31;;;25.71;24.68
70902;BME280;58548;47.210;8.618;2023-04-19T12:16:39;94165.06;;;25.70;24.51
70902;BME280;58548;47.210;8.618;2023-04-19T12:19:17;94073.84;;;25.18;24.61
70902;BME280;58548;47.210;8.618;2023-04-19T12:21:46;94155.09;;;25.76;24.12
70902;BME280;58548;47.210;8.618;2023-04-19T12:24:16;94084.88;;;25.35;24.42
70902;BME280;58548;47.210;8.618;2023-04-19T12:26:53;94157.38;;;25.87;24.95
70902;BME280;58548;47.210;8.618;2023-04-19T12:29:21;94117.19;;;25.68;24.89
70902;BME280;58548;47.210;8.618;2023-04-19T12:31:47;94065.44;;;25.29;25.63
70902;BME280;58548;47.210;8.618;2023-04-19T12:34:13;94148.66;;;26.01;25.02
70902;BME280;58548;47.210;8.618;2023-04-19T12:36:39;94062.06;;;25.48;24.49
70902;BME280;58548;47.210;8.618;2023-04-19T12:39:05;94150.97;;;26.13;23.71
70902;BME280;58548;47.210;8.618;2023-04-19T12:41:36;94094.47;;;25.90;23.82
70902;BME280;58548;47.210;8.618;2023-04-19T12:44:04;94135.78;;;26.27;24.11
70902;BME280;58548;47.210;8.618;2023-04-19T12:46:33;94139.19;;;26.14;24.06
70902;BME280;58548;47.210;8.618;2023-04-19T12:48:59;94145.59;;;26.13;24.10
70902;BME280;58548;47.210;8.618;2023-04-19T12:51:24;94063.78;;;25.63;23.37
70902;BME280;58548;47.210;8.618;2023-04-19T12:53:53;94139.34;;;25.98;23.03
70902;BME280;58548;47.210;8.618;2023-04-19T12:56:19;94125.91;;;25.79;23.65
70902;BME280;58548;47.210;8.618;2023-04-19T12:58:45;94071.47;;;25.40;23.81
70902;BME280;58548;47.210;8.618;2023-04-19T13:01:11;94130.16;;;25.80;23.60
70902;BME280;58548;47.210;8.618;2023-04-19T13:03:39;94104.38;;;25.65;23.89
70902;BME280;58548;47.210;8.618;2023-04-19T13:06:07;94126.63;;;25.85;24.30
70902;BME280;58548;47.210;8.618;2023-04-19T13:08:36;94092.69;;;25.61;24.28
70902;BME280;58548;47.210;8.618;2023-04-19T13:11:05;94122.38;;;25.84;23.96
70902;BME280;58548;47.210;8.618;2023-04-19T13:13:36;94117.25;;;25.87;23.70